KCRW/CRW METAR and TAF weather

Enter ICAO airport designator
Station Type Date Time Source
KCRW METAR 2022/07/03 13:54 UTC NOAA

KCRW 031354Z 15003KT 2SMSM BR SCT005 BKN046 OVC100 22/22 A3013 RMK RAEMM SLP197 VLY FG P0002 T021170217 $


Station Type Date Time Source
KCRW Decoded METAR 2022/07/03 13:54 UTC NOAA

YEAGER AIRPORT, WV, United States (KCRW) 38-22N 081-36W 309M
Jul 03, 2022 - 09:54 AM EDT / 2022.07.03 1354 UTC
Wind: from the SSE (150 degrees) at 3 MPH (3 KT):0
Sky conditions: overcast
Weather: mist
Precipitation last hour: 0.02 inches
Temperature: 70.0 F (21.1 C)
Dew Point: 35.8 F (2.1 C)
Relative Humidity: 28%
Pressure (altimeter): 30.13 in. Hg (1020 hPa)
ob: KCRW 031354Z 15003KT 2SMSM BR SCT005 BKN046 OVC100 22/22 A3013 RMK RAEMM SLP197 VLY FG P0002 T021170217
cycle: 14

Station Type Date Time Source
KCRW TAF 2022/07/03 14:58 UTC NOAA

TAF
AMD KCRW 031356Z 0314/0412 00000KT P6SM VCSH SCT005 BKN050
TEMPO 0314/0315 5SM -SHRA BKN005
FM031600 00000KT P6SM SCT030
FM031800 02004KT P6SM FEW040
FM032200 VRB03KT P6SM SKC

Example: see airport list